Terminal Aerodrome Forecast
Issued by NWS Milwaukee/Sullivan, WI

Home | Current Version | Previous Version | Text Only | Print | Product List | Glossary On
Versions: 1 2 3 4 5 6 7 8 9 10 11 12 13 14 15 16 17 18 19 20 21 22 23 24 25 26 27 28 29 30
000
FTUS43 KMKX 181720
TAFMKE
TAF
KMKE 181720Z 1818/1924 25011G18KT P6SM BKN010
     FM182100 24010KT P6SM SCT020
     FM190300 22012KT P6SM SCT090 WS020/25040KT
     FM190600 24013G21KT P6SM SCT130 WS020/27045KT
     FM191000 25013G20KT P6SM SCT250
     FM191900 27012G22KT P6SM FEW250=

USA.gov is the U.S. government's official web portal to all federal, state and local government web resources and services.